createdAt,value
2018-06-12T00:00:37.815Z,1011.08
2018-06-12T00:01:37.795Z,1011.12
2018-06-12T00:02:37.790Z,1011.11
2018-06-12T00:03:37.844Z,1011.11
2018-06-12T00:04:37.957Z,1011.06
2018-06-12T00:05:37.767Z,1011.03
2018-06-12T00:06:37.765Z,1011.02
2018-06-12T00:07:37.776Z,1011.01
2018-06-12T00:08:37.813Z,1011
2018-06-12T00:09:37.799Z,1010.99
2018-06-12T00:10:37.777Z,1011.04
2018-06-12T00:11:37.776Z,1010.99
2018-06-12T00:12:37.794Z,1011.07
2018-06-12T00:13:37.783Z,1011.09
2018-06-12T00:14:37.809Z,1011.07
2018-06-12T00:15:37.787Z,1011.06
2018-06-12T00:16:37.817Z,1011.05
2018-06-12T00:17:37.836Z,1011.05
2018-06-12T00:18:37.772Z,1011.04
2018-06-12T00:19:37.775Z,1011.03
2018-06-12T00:20:37.820Z,1011.01
2018-06-12T00:21:37.770Z,1010.99
2018-06-12T00:22:38.013Z,1011.02
2018-06-12T00:23:37.824Z,1011.02
2018-06-12T00:24:37.792Z,1011.01
2018-06-12T00:25:37.795Z,1011.03
2018-06-12T00:26:37.845Z,1011.04
2018-06-12T00:27:38.035Z,1011.03
2018-06-12T00:28:37.779Z,1011.02
2018-06-12T00:29:37.785Z,1011.05
2018-06-12T00:30:37.810Z,1011.05
2018-06-12T00:31:37.778Z,1011
2018-06-12T00:32:37.813Z,1011.03
2018-06-12T00:33:37.782Z,1011.04
2018-06-12T00:34:37.760Z,1011.03
2018-06-12T00:35:37.778Z,1011.1
2018-06-12T00:36:37.772Z,1011.06
2018-06-12T00:37:37.798Z,1011.04
2018-06-12T00:38:37.844Z,1011
2018-06-12T00:39:37.967Z,1011.02
2018-06-12T00:40:37.932Z,1011.02
2018-06-12T00:41:37.789Z,1011.05
2018-06-12T00:42:37.829Z,1011.05
2018-06-12T00:43:37.813Z,1011.09
2018-06-12T00:44:37.785Z,1011.08
2018-06-12T00:45:37.918Z,1011.12
2018-06-12T00:46:37.768Z,1011.09
2018-06-12T00:47:37.757Z,1011.13
2018-06-12T00:48:37.783Z,1011.07
2018-06-12T00:49:37.836Z,1011.05
2018-06-12T00:50:37.881Z,1011.09
2018-06-12T00:51:37.766Z,1011.07
2018-06-12T00:52:37.911Z,1011.09
2018-06-12T00:53:37.829Z,1011.06
2018-06-12T00:54:37.778Z,1011.09
2018-06-12T00:55:37.880Z,1011.07
2018-06-12T00:56:37.768Z,1011.09
2018-06-12T00:57:37.894Z,1011.1
2018-06-12T00:58:37.761Z,1011.1
2018-06-12T00:59:38.121Z,1011.08
2018-06-12T01:00:37.882Z,1011.13
2018-06-12T01:01:37.820Z,1011.12
2018-06-12T01:02:37.804Z,1011.18
2018-06-12T01:03:37.758Z,1011.18
2018-06-12T01:04:37.790Z,1011.16
2018-06-12T01:05:37.750Z,1011.2
2018-06-12T01:06:37.757Z,1011.19
2018-06-12T01:07:37.913Z,1011.2
2018-06-12T01:08:37.948Z,1011.21
2018-06-12T01:09:37.982Z,1011.23
2018-06-12T01:10:37.767Z,1011.25
2018-06-12T01:11:37.777Z,1011.3
2018-06-12T01:12:37.812Z,1011.31
2018-06-12T01:13:37.757Z,1011.35
2018-06-12T01:14:37.756Z,1011.32
2018-06-12T01:15:37.775Z,1011.36
2018-06-12T01:16:37.751Z,1011.32
2018-06-12T01:17:37.752Z,1011.34
2018-06-12T01:18:37.743Z,1011.34
2018-06-12T01:19:37.792Z,1011.35
2018-06-12T01:20:37.783Z,1011.36
2018-06-12T01:21:37.756Z,1011.43
2018-06-12T01:22:37.757Z,1011.47
2018-06-12T01:23:37.766Z,1011.48
2018-06-12T01:24:37.797Z,1011.46
2018-06-12T01:25:37.800Z,1011.47
2018-06-12T01:26:37.789Z,1011.44
2018-06-12T01:27:37.779Z,1011.44
2018-06-12T01:28:37.761Z,1011.37
2018-06-12T01:29:37.810Z,1011.42
2018-06-12T01:30:37.827Z,1011.42
2018-06-12T01:31:37.754Z,1011.4
2018-06-12T01:32:37.748Z,1011.4
2018-06-12T01:33:37.783Z,1011.46
2018-06-12T01:34:37.750Z,1011.44
2018-06-12T01:35:37.767Z,1011.52
2018-06-12T01:36:37.787Z,1011.46
2018-06-12T01:37:37.857Z,1011.52
2018-06-12T01:38:37.770Z,1011.51
2018-06-12T01:39:37.888Z,1011.53
2018-06-12T01:40:37.866Z,1011.51
2018-06-12T01:41:38.359Z,1011.48
2018-06-12T01:42:37.743Z,1011.47
2018-06-12T01:43:38.113Z,1011.44
2018-06-12T01:44:37.766Z,1011.44
2018-06-12T01:45:38.033Z,1011.42
2018-06-12T01:46:37.811Z,1011.44
2018-06-12T01:47:37.752Z,1011.45
2018-06-12T01:48:37.884Z,1011.46
2018-06-12T01:49:37.740Z,1011.47
2018-06-12T01:50:37.739Z,1011.44
2018-06-12T01:51:37.765Z,1011.44
2018-06-12T01:52:37.810Z,1011.44
2018-06-12T01:53:37.769Z,1011.39
2018-06-12T01:54:37.741Z,1011.4
2018-06-12T01:55:37.757Z,1011.37
2018-06-12T01:56:37.788Z,1011.35
2018-06-12T01:57:37.790Z,1011.35
2018-06-12T01:58:37.743Z,1011.35
2018-06-12T01:59:37.777Z,1011.31
2018-06-12T02:00:37.766Z,1011.32
2018-06-12T02:01:37.909Z,1011.27
2018-06-12T02:02:37.916Z,1011.33
2018-06-12T02:03:38.153Z,1011.33
2018-06-12T02:04:37.736Z,1011.36
2018-06-12T02:05:37.737Z,1011.4
2018-06-12T02:06:37.751Z,1011.4
2018-06-12T02:07:37.753Z,1011.42
2018-06-12T02:08:37.775Z,1011.37
2018-06-12T02:09:37.747Z,1011.4
2018-06-12T02:10:37.732Z,1011.32
2018-06-12T02:11:37.745Z,1011.33
2018-06-12T02:12:37.773Z,1011.3
2018-06-12T02:13:37.802Z,1011.27
2018-06-12T02:14:37.778Z,1011.27
2018-06-12T02:15:37.735Z,1011.3
2018-06-12T02:16:37.751Z,1011.28
2018-06-12T02:17:37.754Z,1011.27
2018-06-12T02:18:37.741Z,1011.23
2018-06-12T02:19:37.745Z,1011.26
2018-06-12T02:20:37.740Z,1011.24
2018-06-12T02:21:38.010Z,1011.21
2018-06-12T02:22:37.797Z,1011.2
2018-06-12T02:23:37.749Z,1011.19
2018-06-12T02:24:37.744Z,1011.16
2018-06-12T02:25:38.005Z,1011.16
2018-06-12T02:26:37.738Z,1011.18
2018-06-12T02:27:37.732Z,1011.15
2018-06-12T02:28:37.722Z,1011.14
2018-06-12T02:29:37.730Z,1011.13
2018-06-12T02:30:37.741Z,1011.14
2018-06-12T02:31:37.771Z,1011.15
2018-06-12T02:32:37.736Z,1011.12
2018-06-12T02:33:37.755Z,1011.15
2018-06-12T02:34:37.756Z,1011.15
2018-06-12T02:35:37.776Z,1011.15
2018-06-12T02:36:37.728Z,1011.14
2018-06-12T02:37:37.776Z,1011.13
2018-06-12T02:38:37.733Z,1011.13
2018-06-12T02:39:37.749Z,1011.13
2018-06-12T02:40:37.744Z,1011.09
2018-06-12T02:41:37.721Z,1011.08
2018-06-12T02:42:37.737Z,1011.07
2018-06-12T02:43:37.744Z,1011.08
2018-06-12T02:44:37.921Z,1011.07
2018-06-12T02:45:37.767Z,1011.04
2018-06-12T02:46:37.748Z,1011.04
2018-06-12T02:47:37.736Z,1011.05
2018-06-12T02:48:37.737Z,1011.01
2018-06-12T02:49:37.751Z,1011.07
2018-06-12T02:50:37.748Z,1011.04
2018-06-12T02:51:37.908Z,1011.05
2018-06-12T02:52:37.744Z,1011.05
2018-06-12T02:53:37.922Z,1011.01
2018-06-12T02:54:37.725Z,1010.95
2018-06-12T02:55:37.737Z,1010.95
2018-06-12T02:56:37.761Z,1010.94
2018-06-12T02:57:37.731Z,1010.99
2018-06-12T02:58:38.022Z,1010.97
2018-06-12T02:59:37.720Z,1010.99
2018-06-12T03:00:37.927Z,1010.97
2018-06-12T03:01:37.754Z,1010.96
2018-06-12T03:02:37.779Z,1011.01
2018-06-12T03:03:37.873Z,1011.01
2018-06-12T03:04:37.732Z,1011
2018-06-12T03:05:37.739Z,1011
2018-06-12T03:06:37.728Z,1011.02
2018-06-12T03:07:37.759Z,1010.99
2018-06-12T03:08:37.741Z,1010.98
2018-06-12T03:09:37.775Z,1010.94
2018-06-12T03:10:37.720Z,1010.97
2018-06-12T03:11:37.733Z,1010.95
2018-06-12T03:12:37.721Z,1010.96
2018-06-12T03:13:37.726Z,1010.97
2018-06-12T03:14:37.716Z,1010.91
2018-06-12T03:15:37.715Z,1010.97
2018-06-12T03:16:37.820Z,1010.97
2018-06-12T03:17:37.768Z,1010.97
2018-06-12T03:18:37.724Z,1010.98
2018-06-12T03:19:37.710Z,1010.95
2018-06-12T03:20:37.753Z,1011
2018-06-12T03:21:37.703Z,1010.99
2018-06-12T03:22:37.702Z,1011
2018-06-12T03:23:37.718Z,1010.99
2018-06-12T03:24:37.763Z,1011.01
2018-06-12T03:25:37.735Z,1010.98
2018-06-12T03:26:37.892Z,1010.95
2018-06-12T03:27:37.714Z,1010.96
2018-06-12T03:28:37.800Z,1010.97
2018-06-12T03:29:37.760Z,1010.93
2018-06-12T03:30:37.731Z,1010.99
2018-06-12T03:31:37.793Z,1010.94
2018-06-12T03:32:37.901Z,1010.95
2018-06-12T03:33:37.912Z,1010.94
2018-06-12T03:34:37.734Z,1010.98
2018-06-12T03:35:37.713Z,1011.02
2018-06-12T03:36:37.728Z,1011.05
2018-06-12T03:37:37.711Z,1011.05
2018-06-12T03:38:37.704Z,1011.04
2018-06-12T03:39:37.879Z,1011.03
2018-06-12T03:40:37.696Z,1011.07
2018-06-12T03:41:37.697Z,1011.03
2018-06-12T03:42:37.707Z,1011.03
2018-06-12T03:43:37.708Z,1011.05
2018-06-12T03:44:37.763Z,1011.04
2018-06-12T03:45:37.719Z,1011.03
2018-06-12T03:46:37.713Z,1011.06
2018-06-12T03:47:37.709Z,1011.04
2018-06-12T03:48:37.704Z,1011.06
2018-06-12T03:49:37.714Z,1011.07
2018-06-12T03:50:37.702Z,1011.09
2018-06-12T03:51:37.715Z,1011.07
2018-06-12T03:52:37.708Z,1011.09
2018-06-12T03:53:37.698Z,1011.12
2018-06-12T03:54:37.706Z,1011.12
2018-06-12T03:55:37.706Z,1011.07
2018-06-12T03:56:37.691Z,1011.06
2018-06-12T03:57:37.862Z,1011.08
2018-06-12T03:58:37.740Z,1011.08
2018-06-12T03:59:37.929Z,1011.08
2018-06-12T04:00:37.803Z,1011.07
2018-06-12T04:01:37.727Z,1011.08
2018-06-12T04:02:37.714Z,1011.07
2018-06-12T04:03:37.745Z,1011.07
2018-06-12T04:04:37.692Z,1011.05
2018-06-12T04:05:37.710Z,1011.04
2018-06-12T04:06:37.696Z,1011.02
2018-06-12T04:07:37.782Z,1011.02
2018-06-12T04:08:37.672Z,1011.05
2018-06-12T04:09:37.700Z,1011.06
2018-06-12T04:10:37.741Z,1011.03
2018-06-12T04:11:37.890Z,1011.02
2018-06-12T04:12:37.759Z,1011
2018-06-12T04:13:37.707Z,1010.98
2018-06-12T04:14:37.702Z,1011
2018-06-12T04:15:37.721Z,1010.98
2018-06-12T04:16:37.723Z,1010.98
2018-06-12T04:17:37.754Z,1010.98
2018-06-12T04:18:37.944Z,1010.95
2018-06-12T04:19:37.715Z,1010.95
2018-06-12T04:20:37.828Z,1011.01
2018-06-12T04:21:37.680Z,1010.97
2018-06-12T04:22:37.680Z,1010.99
2018-06-12T04:23:37.751Z,1010.99
2018-06-12T04:24:37.763Z,1011.02
2018-06-12T04:25:37.689Z,1010.97
2018-06-12T04:26:37.701Z,1010.98
2018-06-12T04:27:37.702Z,1011.01
2018-06-12T04:28:37.694Z,1011.01
2018-06-12T04:29:37.910Z,1010.99
2018-06-12T04:30:38.385Z,1010.98
2018-06-12T04:31:38.045Z,1011
2018-06-12T04:32:37.718Z,1011
2018-06-12T04:33:37.706Z,1011.01
2018-06-12T04:34:37.751Z,1011.01
2018-06-12T04:35:37.688Z,1011.03
2018-06-12T04:36:37.750Z,1011.08
2018-06-12T04:37:37.693Z,1011.03
2018-06-12T04:38:37.700Z,1011.04
2018-06-12T04:39:37.727Z,1011.01
2018-06-12T04:40:37.688Z,1010.99
2018-06-12T04:41:37.694Z,1010.98
2018-06-12T04:42:37.685Z,1011.03
2018-06-12T04:43:38.012Z,1011.03
2018-06-12T04:44:37.712Z,1011.03
2018-06-12T04:45:37.740Z,1011.05
2018-06-12T04:46:37.746Z,1011.06
2018-06-12T04:47:37.681Z,1011.11
2018-06-12T04:48:37.723Z,1011.05
2018-06-12T04:49:37.704Z,1011.05
2018-06-12T04:50:37.737Z,1011.1
2018-06-12T04:51:37.719Z,1011.02
2018-06-12T04:52:37.693Z,1011.03
2018-06-12T04:53:37.688Z,1011.05
2018-06-12T04:54:37.758Z,1011.1
2018-06-12T04:55:37.686Z,1011.11
2018-06-12T04:56:37.717Z,1011.13
2018-06-12T04:57:37.687Z,1011.11
2018-06-12T04:58:37.685Z,1011.14
2018-06-12T04:59:37.681Z,1011.16
2018-06-12T05:00:37.711Z,1011.15
2018-06-12T05:01:37.675Z,1011.18
2018-06-12T05:02:37.690Z,1011.19
2018-06-12T05:03:37.675Z,1011.22
2018-06-12T05:04:37.661Z,1011.19
2018-06-12T05:05:37.745Z,1011.23
2018-06-12T05:06:37.674Z,1011.23
2018-06-12T05:07:37.718Z,1011.18
2018-06-12T05:08:37.776Z,1011.24
2018-06-12T05:09:37.676Z,1011.17
2018-06-12T05:10:37.850Z,1011.2
2018-06-12T05:11:37.672Z,1011.18
2018-06-12T05:12:37.663Z,1011.15
2018-06-12T05:13:37.699Z,1011.21
2018-06-12T05:14:38.083Z,1011.19
2018-06-12T05:15:37.734Z,1011.19
2018-06-12T05:16:37.684Z,1011.18
2018-06-12T05:17:37.680Z,1011.21
2018-06-12T05:18:38.007Z,1011.21
2018-06-12T05:19:38.283Z,1011.2
2018-06-12T05:20:37.879Z,1011.14
2018-06-12T05:21:37.977Z,1011.17
2018-06-12T05:22:37.771Z,1011.2
2018-06-12T05:23:37.671Z,1011.21
2018-06-12T05:24:37.690Z,1011.22
2018-06-12T05:25:37.944Z,1011.26
2018-06-12T05:26:37.659Z,1011.3
2018-06-12T05:27:37.665Z,1011.25
2018-06-12T05:28:37.897Z,1011.26
2018-06-12T05:29:37.667Z,1011.26
2018-06-12T05:30:37.731Z,1011.25
2018-06-12T05:31:37.788Z,1011.32
2018-06-12T05:32:37.851Z,1011.28
2018-06-12T05:33:37.789Z,1011.32
2018-06-12T05:34:37.664Z,1011.25
2018-06-12T05:35:37.919Z,1011.29
2018-06-12T05:36:37.699Z,1011.21
2018-06-12T05:37:37.664Z,1011.24
2018-06-12T05:38:37.681Z,1011.25
2018-06-12T05:39:37.700Z,1011.32
2018-06-12T05:40:37.687Z,1011.27
2018-06-12T05:41:37.693Z,1011.31
2018-06-12T05:42:37.725Z,1011.32
2018-06-12T05:43:37.673Z,1011.3
2018-06-12T05:44:37.716Z,1011.32
2018-06-12T05:45:38.035Z,1011.28
2018-06-12T05:46:37.664Z,1011.3
2018-06-12T05:47:37.689Z,1011.3
2018-06-12T05:48:37.867Z,1011.34
2018-06-12T05:49:37.682Z,1011.35
2018-06-12T05:50:37.682Z,1011.35
2018-06-12T05:51:37.698Z,1011.38
2018-06-12T05:52:37.725Z,1011.36
2018-06-12T05:53:37.752Z,1011.39
2018-06-12T05:54:37.667Z,1011.38
2018-06-12T05:55:37.701Z,1011.42
2018-06-12T05:56:37.653Z,1011.41
2018-06-12T05:57:37.666Z,1011.4
2018-06-12T05:58:37.662Z,1011.42
2018-06-12T05:59:37.660Z,1011.44
2018-06-12T06:00:37.667Z,1011.4
2018-06-12T06:01:37.698Z,1011.41
2018-06-12T06:02:37.692Z,1011.43
2018-06-12T06:03:37.652Z,1011.42
2018-06-12T06:04:37.670Z,1011.43
2018-06-12T06:05:37.656Z,1011.46
2018-06-12T06:06:37.671Z,1011.48
2018-06-12T06:07:37.670Z,1011.46
2018-06-12T06:08:37.664Z,1011.51
2018-06-12T06:09:37.663Z,1011.49
2018-06-12T06:10:37.765Z,1011.47
2018-06-12T06:11:37.669Z,1011.5
2018-06-12T06:12:37.704Z,1011.49
2018-06-12T06:13:37.696Z,1011.48
2018-06-12T06:14:37.669Z,1011.48
2018-06-12T06:15:37.669Z,1011.48
2018-06-12T06:16:37.663Z,1011.52
2018-06-12T06:17:37.682Z,1011.5
2018-06-12T06:18:37.678Z,1011.55
2018-06-12T06:19:37.660Z,1011.52
2018-06-12T06:20:37.761Z,1011.57
2018-06-12T06:21:37.722Z,1011.54
2018-06-12T06:22:37.860Z,1011.57
2018-06-12T06:23:37.692Z,1011.56
2018-06-12T06:24:37.659Z,1011.58
2018-06-12T06:25:37.942Z,1011.58
2018-06-12T06:26:37.719Z,1011.63
2018-06-12T06:27:37.692Z,1011.58
2018-06-12T06:28:37.666Z,1011.61
2018-06-12T06:29:37.824Z,1011.59
2018-06-12T06:30:37.683Z,1011.62
2018-06-12T06:31:37.664Z,1011.6
2018-06-12T06:32:37.691Z,1011.63
2018-06-12T06:33:37.836Z,1011.62
2018-06-12T06:34:37.849Z,1011.66
2018-06-12T06:35:37.703Z,1011.63
2018-06-12T06:36:37.731Z,1011.59
2018-06-12T06:37:37.717Z,1011.61
2018-06-12T06:38:37.771Z,1011.58
2018-06-12T06:39:37.678Z,1011.58
2018-06-12T06:40:37.732Z,1011.56
2018-06-12T06:41:37.784Z,1011.62
2018-06-12T06:42:37.709Z,1011.53
2018-06-12T06:43:37.716Z,1011.56
2018-06-12T06:44:37.701Z,1011.58
2018-06-12T06:45:37.703Z,1011.58
2018-06-12T06:46:37.721Z,1011.6
2018-06-12T06:47:37.706Z,1011.63
2018-06-12T06:48:37.706Z,1011.66
2018-06-12T06:49:37.711Z,1011.68
2018-06-12T06:50:37.713Z,1011.65
2018-06-12T06:51:37.860Z,1011.65
2018-06-12T06:52:37.726Z,1011.65
2018-06-12T06:53:37.787Z,1011.67
2018-06-12T06:54:37.689Z,1011.67
2018-06-12T06:55:38.045Z,1011.68
2018-06-12T06:56:37.702Z,1011.67
2018-06-12T06:57:37.765Z,1011.71
2018-06-12T06:58:37.712Z,1011.71
2018-06-12T06:59:37.725Z,1011.69
2018-06-12T07:00:37.739Z,1011.7
2018-06-12T07:01:37.723Z,1011.73
2018-06-12T07:02:37.728Z,1011.71
2018-06-12T07:03:37.719Z,1011.72
2018-06-12T07:04:37.695Z,1011.7
2018-06-12T07:05:37.721Z,1011.73
2018-06-12T07:06:37.712Z,1011.68
2018-06-12T07:07:37.986Z,1011.73
2018-06-12T07:08:37.706Z,1011.7
2018-06-12T07:09:37.762Z,1011.7
2018-06-12T07:10:37.697Z,1011.69
2018-06-12T07:11:37.729Z,1011.69
2018-06-12T07:12:37.708Z,1011.67
2018-06-12T07:13:37.704Z,1011.65
2018-06-12T07:14:37.708Z,1011.67
2018-06-12T07:15:37.702Z,1011.67
2018-06-12T07:16:37.726Z,1011.66
2018-06-12T07:17:37.699Z,1011.62
2018-06-12T07:18:37.709Z,1011.63
2018-06-12T07:19:37.696Z,1011.63
2018-06-12T07:20:37.713Z,1011.64
2018-06-12T07:21:37.727Z,1011.6
2018-06-12T07:22:37.721Z,1011.59
2018-06-12T07:23:37.885Z,1011.58
2018-06-12T07:24:37.702Z,1011.6
2018-06-12T07:25:37.695Z,1011.61
2018-06-12T07:26:37.756Z,1011.62
2018-06-12T07:27:37.734Z,1011.6
2018-06-12T07:28:37.718Z,1011.64
2018-06-12T07:29:37.718Z,1011.56
2018-06-12T07:30:37.724Z,1011.6
2018-06-12T07:31:37.766Z,1011.61
2018-06-12T07:32:37.754Z,1011.6
2018-06-12T07:33:37.731Z,1011.6
2018-06-12T07:34:37.936Z,1011.63
2018-06-12T07:35:37.748Z,1011.61
2018-06-12T07:36:37.785Z,1011.6
2018-06-12T07:37:38.464Z,1011.62
2018-06-12T07:38:37.745Z,1011.66
2018-06-12T07:39:37.724Z,1011.64
2018-06-12T07:40:37.816Z,1011.64
2018-06-12T07:41:38.374Z,1011.68
2018-06-12T07:42:37.767Z,1011.68
2018-06-12T07:43:37.713Z,1011.66
2018-06-12T07:44:37.718Z,1011.68
2018-06-12T07:45:37.724Z,1011.66
2018-06-12T07:46:37.739Z,1011.71
2018-06-12T07:47:37.747Z,1011.69
2018-06-12T07:48:37.772Z,1011.67
2018-06-12T07:49:37.762Z,1011.69
2018-06-12T07:50:37.707Z,1011.7
2018-06-12T07:51:37.725Z,1011.69
2018-06-12T07:52:37.861Z,1011.72
2018-06-12T07:53:37.751Z,1011.71
2018-06-12T07:54:37.700Z,1011.69
2018-06-12T07:55:37.787Z,1011.69
2018-06-12T07:56:37.764Z,1011.67
2018-06-12T07:57:37.768Z,1011.71
2018-06-12T07:58:37.794Z,1011.67
2018-06-12T07:59:37.760Z,1011.7
2018-06-12T08:00:37.747Z,1011.73
2018-06-12T08:01:37.733Z,1011.71
2018-06-12T08:02:37.721Z,1011.72
2018-06-12T08:03:37.727Z,1011.72
2018-06-12T08:04:37.758Z,1011.7
2018-06-12T08:05:37.819Z,1011.71
2018-06-12T08:06:37.781Z,1011.69
2018-06-12T08:07:37.815Z,1011.67
2018-06-12T08:08:37.901Z,1011.64
2018-06-12T08:09:37.771Z,1011.64
2018-06-12T08:10:37.742Z,1011.67
2018-06-12T08:11:37.750Z,1011.66
2018-06-12T08:12:37.741Z,1011.65
2018-06-12T08:13:37.731Z,1011.7
2018-06-12T08:14:37.726Z,1011.68
2018-06-12T08:15:37.778Z,1011.7
2018-06-12T08:16:37.794Z,1011.69
2018-06-12T08:17:37.777Z,1011.68
2018-06-12T08:18:37.840Z,1011.69
2018-06-12T08:19:37.739Z,1011.73
2018-06-12T08:20:37.852Z,1011.66
2018-06-12T08:21:37.746Z,1011.69
2018-06-12T08:22:37.887Z,1011.72
2018-06-12T08:23:37.785Z,1011.72
2018-06-12T08:24:37.751Z,1011.69
2018-06-12T08:25:37.755Z,1011.69
2018-06-12T08:26:37.736Z,1011.62
2018-06-12T08:27:37.758Z,1011.62
2018-06-12T08:28:37.794Z,1011.66
2018-06-12T08:29:37.926Z,1011.6
2018-06-12T08:30:37.928Z,1011.59
2018-06-12T08:31:37.738Z,1011.59
2018-06-12T08:32:37.745Z,1011.6
2018-06-12T08:33:37.763Z,1011.64
2018-06-12T08:34:37.855Z,1011.63
2018-06-12T08:35:37.840Z,1011.63
2018-06-12T08:36:37.767Z,1011.66
2018-06-12T08:37:37.751Z,1011.67
2018-06-12T08:38:37.765Z,1011.69
2018-06-12T08:39:37.765Z,1011.7
2018-06-12T08:40:37.777Z,1011.74
2018-06-12T08:41:37.833Z,1011.75
2018-06-12T08:42:37.864Z,1011.79
2018-06-12T08:43:37.747Z,1011.81
2018-06-12T08:44:38.047Z,1011.86
2018-06-12T08:45:37.745Z,1011.87
2018-06-12T08:46:37.761Z,1011.87
2018-06-12T08:47:37.906Z,1011.84
2018-06-12T08:48:37.752Z,1011.86
2018-06-12T08:49:37.912Z,1011.87
2018-06-12T08:50:37.967Z,1011.92
2018-06-12T08:51:37.867Z,1011.82
2018-06-12T08:52:37.779Z,1011.83
2018-06-12T08:53:37.784Z,1011.81
2018-06-12T08:54:37.752Z,1011.82
2018-06-12T08:55:37.790Z,1011.83
2018-06-12T08:56:37.946Z,1011.82
2018-06-12T08:57:37.984Z,1011.85
2018-06-12T08:58:37.775Z,1011.83
2018-06-12T08:59:37.753Z,1011.85
2018-06-12T09:00:37.753Z,1011.86
2018-06-12T09:01:37.799Z,1011.82
2018-06-12T09:02:37.984Z,1011.83
2018-06-12T09:03:37.769Z,1011.8
2018-06-12T09:04:37.923Z,1011.85
2018-06-12T09:05:37.928Z,1011.85
2018-06-12T09:06:37.786Z,1011.86
2018-06-12T09:07:37.941Z,1011.9
2018-06-12T09:08:37.805Z,1011.9
2018-06-12T09:09:37.962Z,1011.95
2018-06-12T09:10:37.907Z,1011.96
2018-06-12T09:11:37.832Z,1011.95
2018-06-12T09:12:37.794Z,1011.94
2018-06-12T09:13:37.794Z,1011.97
2018-06-12T09:14:37.893Z,1011.98
2018-06-12T09:15:38.043Z,1011.99
2018-06-12T09:16:37.846Z,1012.01
2018-06-12T09:17:37.955Z,1012.01
2018-06-12T09:18:37.989Z,1012.05
2018-06-12T09:19:37.919Z,1012.04
2018-06-12T09:20:37.815Z,1012.04
2018-06-12T09:21:37.774Z,1012.03
2018-06-12T09:22:37.784Z,1012.07
2018-06-12T09:23:37.769Z,1012.06
2018-06-12T09:24:37.782Z,1012.04
2018-06-12T09:25:37.789Z,1012
2018-06-12T09:26:38.117Z,1012
2018-06-12T09:27:37.793Z,1011.99
2018-06-12T09:28:37.781Z,1011.99
2018-06-12T09:29:37.785Z,1011.98
2018-06-12T09:30:37.779Z,1011.99
2018-06-12T09:31:37.815Z,1011.96
2018-06-12T09:32:37.779Z,1011.95
2018-06-12T09:33:37.779Z,1011.93
2018-06-12T09:34:37.809Z,1011.97
2018-06-12T09:35:37.773Z,1012.02
2018-06-12T09:36:37.774Z,1012.05
2018-06-12T09:37:37.787Z,1012.05
2018-06-12T09:38:37.790Z,1012.06
2018-06-12T09:39:37.784Z,1012.06
2018-06-12T09:40:37.808Z,1012.08
2018-06-12T09:41:37.872Z,1012.05
2018-06-12T09:42:37.788Z,1012.05
2018-06-12T09:43:37.795Z,1012.04
2018-06-12T09:44:37.793Z,1012
2018-06-12T09:45:37.790Z,1011.98
2018-06-12T09:46:37.769Z,1012
2018-06-12T09:47:37.798Z,1011.97
2018-06-12T09:48:37.791Z,1011.96
2018-06-12T09:49:37.815Z,1011.95
2018-06-12T09:50:37.782Z,1011.96
2018-06-12T09:51:37.809Z,1011.94
2018-06-12T09:52:37.826Z,1011.94
2018-06-12T09:53:38.093Z,1011.93
2018-06-12T09:54:37.872Z,1011.94
2018-06-12T09:55:37.924Z,1011.95
2018-06-12T09:56:37.814Z,1011.94
2018-06-12T09:57:38.082Z,1011.98
2018-06-12T09:58:38.007Z,1012.02
2018-06-12T09:59:37.946Z,1012.06
2018-06-12T10:00:37.803Z,1012.14
2018-06-12T10:01:37.797Z,1012.13
2018-06-12T10:02:37.803Z,1012.13
2018-06-12T10:03:38.121Z,1012.17
2018-06-12T10:04:37.860Z,1012.17
2018-06-12T10:05:37.857Z,1012.17
2018-06-12T10:06:37.831Z,1012.15
2018-06-12T10:07:37.798Z,1012.15
2018-06-12T10:08:38.071Z,1012.13
2018-06-12T10:09:38.237Z,1012.16
2018-06-12T10:10:37.954Z,1012.15
2018-06-12T10:11:38.111Z,1012.14
2018-06-12T10:12:37.808Z,1012.15
2018-06-12T10:13:37.854Z,1012.16
2018-06-12T10:14:37.987Z,1012.18
2018-06-12T10:15:37.866Z,1012.16
2018-06-12T10:16:37.798Z,1012.12
2018-06-12T10:17:37.806Z,1012.16
2018-06-12T10:18:37.808Z,1012.16
2018-06-12T10:19:37.865Z,1012.14
2018-06-12T10:20:37.813Z,1012.13
2018-06-12T10:21:37.791Z,1012.16
2018-06-12T10:22:37.947Z,1012.16
2018-06-12T10:23:37.888Z,1012.16
2018-06-12T10:24:38.148Z,1012.19
2018-06-12T10:25:37.903Z,1012.18
2018-06-12T10:26:37.916Z,1012.23
2018-06-12T10:27:37.953Z,1012.21
2018-06-12T10:28:37.822Z,1012.21
2018-06-12T10:29:37.884Z,1012.25
2018-06-12T10:30:37.940Z,1012.25
2018-06-12T10:31:38.022Z,1012.28
2018-06-12T10:32:37.899Z,1012.25
2018-06-12T10:33:37.845Z,1012.24
2018-06-12T10:34:37.986Z,1012.25
2018-06-12T10:35:37.972Z,1012.26
2018-06-12T10:36:37.933Z,1012.22
2018-06-12T10:37:37.913Z,1012.27
2018-06-12T10:38:37.928Z,1012.23
2018-06-12T10:39:37.899Z,1012.22
2018-06-12T10:40:37.929Z,1012.23
2018-06-12T10:41:37.913Z,1012.23
2018-06-12T10:42:37.917Z,1012.21
2018-06-12T10:43:37.960Z,1012.16
2018-06-12T10:44:37.842Z,1012.2
2018-06-12T10:45:37.847Z,1012.19
2018-06-12T10:46:37.850Z,1012.16
2018-06-12T10:47:37.829Z,1012.16
2018-06-12T10:48:37.811Z,1012.18
2018-06-12T10:49:37.849Z,1012.14
2018-06-12T10:50:37.820Z,1012.23
2018-06-12T10:51:37.823Z,1012.18
2018-06-12T10:52:37.910Z,1012.16
2018-06-12T10:53:37.828Z,1012.18
2018-06-12T10:54:37.822Z,1012.16
2018-06-12T10:55:37.925Z,1012.14
2018-06-12T10:56:37.826Z,1012.15
2018-06-12T10:57:37.876Z,1012.16
2018-06-12T10:58:37.829Z,1012.11
2018-06-12T10:59:37.818Z,1012.04
2018-06-12T11:00:37.835Z,1012.06
2018-06-12T11:01:37.904Z,1012.09
2018-06-12T11:02:37.845Z,1012.07
2018-06-12T11:03:37.980Z,1012.04
2018-06-12T11:04:37.943Z,1012.05
2018-06-12T11:05:37.921Z,1012.03
2018-06-12T11:06:37.871Z,1012.02
2018-06-12T11:07:37.932Z,1012.04
2018-06-12T11:08:37.996Z,1012.04
2018-06-12T11:09:37.859Z,1012.05
2018-06-12T11:10:37.889Z,1012.06
2018-06-12T11:11:37.971Z,1012.06
2018-06-12T11:12:37.872Z,1012.09
2018-06-12T11:13:37.835Z,1012.03
2018-06-12T11:14:37.960Z,1012.06
2018-06-12T11:15:37.847Z,1012.04
2018-06-12T11:16:37.952Z,1012.06
2018-06-12T11:17:37.970Z,1012.06
2018-06-12T11:18:37.849Z,1012.07
2018-06-12T11:19:37.851Z,1012.04
2018-06-12T11:20:38.020Z,1012.08
2018-06-12T11:21:37.966Z,1012.05
2018-06-12T11:22:37.947Z,1012.07
2018-06-12T11:23:37.886Z,1012.03
2018-06-12T11:24:37.862Z,1012.02
2018-06-12T11:25:37.882Z,1012
2018-06-12T11:26:37.940Z,1011.96
2018-06-12T11:27:37.865Z,1011.92
2018-06-12T11:28:37.931Z,1011.9
2018-06-12T11:29:37.966Z,1011.9
2018-06-12T11:30:37.888Z,1011.91
2018-06-12T11:31:37.898Z,1011.84
2018-06-12T11:32:37.858Z,1011.83
2018-06-12T11:33:37.859Z,1011.86
2018-06-12T11:34:37.953Z,1011.88
2018-06-12T11:35:37.866Z,1011.89
2018-06-12T11:36:37.870Z,1011.88
2018-06-12T11:37:37.947Z,1011.91
2018-06-12T11:38:37.968Z,1011.86
2018-06-12T11:39:37.936Z,1011.9
2018-06-12T11:40:37.965Z,1011.88
2018-06-12T11:41:37.960Z,1011.9
2018-06-12T11:42:37.930Z,1011.89
2018-06-12T11:43:37.886Z,1011.86
2018-06-12T11:44:37.920Z,1011.88
2018-06-12T11:45:37.886Z,1011.85
2018-06-12T11:46:37.881Z,1011.86
2018-06-12T11:47:37.990Z,1011.84
2018-06-12T11:48:37.914Z,1011.82
2018-06-12T11:49:37.913Z,1011.85
2018-06-12T11:50:37.941Z,1011.82
2018-06-12T11:51:37.965Z,1011.82
2018-06-12T11:52:38.051Z,1011.78
2018-06-12T11:53:50.291Z,1011.77
2018-06-12T11:54:37.876Z,1011.77
2018-06-12T11:55:37.914Z,1011.77
2018-06-12T11:56:37.922Z,1011.77
2018-06-12T11:57:37.917Z,1011.74
2018-06-12T11:58:37.859Z,1011.76
2018-06-12T11:59:37.885Z,1011.79
2018-06-12T12:00:37.885Z,1011.78
2018-06-12T12:01:37.873Z,1011.76
2018-06-12T12:02:37.863Z,1011.78
2018-06-12T12:03:37.926Z,1011.8
2018-06-12T12:04:37.886Z,1011.78
2018-06-12T12:05:37.869Z,1011.81
2018-06-12T12:06:37.926Z,1011.78
2018-06-12T12:07:37.943Z,1011.81
2018-06-12T12:08:37.892Z,1011.86
2018-06-12T12:09:37.901Z,1011.87